sensor_id;sensor_type;location;lat;lon;timestamp;temperature;humidity
26408;DHT22;14583;43.604;1.364;2022-09-28T00:00:37;15.40;99.90
26408;DHT22;14583;43.604;1.364;2022-09-28T00:03:07;15.50;99.90
26408;DHT22;14583;43.604;1.364;2022-09-28T00:05:33;15.40;99.90
26408;DHT22;14583;43.604;1.364;2022-09-28T00:07:59;15.40;99.90
26408;DHT22;14583;43.604;1.364;2022-09-28T00:10:25;15.40;99.90
26408;DHT22;14583;43.604;1.364;2022-09-28T00:12:51;15.40;99.90
26408;DHT22;14583;43.604;1.364;2022-09-28T00:15:20;15.40;99.90
26408;DHT22;14583;43.604;1.364;2022-09-28T00:17:46;15.50;99.90
26408;DHT22;14583;43.604;1.364;2022-09-28T00:20:12;15.50;99.90
26408;DHT22;14583;43.604;1.364;2022-09-28T00:22:38;15.50;99.90
26408;DHT22;14583;43.604;1.364;2022-09-28T00:25:06;15.50;99.90
26408;DHT22;14583;43.604;1.364;2022-09-28T00:27:31;15.50;99.90
26408;DHT22;14583;43.604;1.364;2022-09-28T00:29:57;15.50;99.90
26408;DHT22;14583;43.604;1.364;2022-09-28T00:32:23;15.50;99.90
26408;DHT22;14583;43.604;1.364;2022-09-28T00:34:50;15.50;99.90
26408;DHT22;14583;43.604;1.364;2022-09-28T00:37:16;15.50;99.90
26408;DHT22;14583;43.604;1.364;2022-09-28T00:39:44;15.40;99.90
26408;DHT22;14583;43.604;1.364;2022-09-28T00:42:21;15.50;99.90
26408;DHT22;14583;43.604;1.364;2022-09-28T00:44:51;15.50;99.90
26408;DHT22;14583;43.604;1.364;2022-09-28T00:52:51;15.40;99.90
26408;DHT22;14583;43.604;1.364;2022-09-28T00:55:21;15.40;99.90
26408;DHT22;14583;43.604;1.364;2022-09-28T00:57:52;15.40;99.90
26408;DHT22;14583;43.604;1.364;2022-09-28T01:00:20;15.40;99.90
26408;DHT22;14583;43.604;1.364;2022-09-28T01:02:46;15.40;99.90
26408;DHT22;14583;43.604;1.364;2022-09-28T01:05:13;15.40;99.90
26408;DHT22;14583;43.604;1.364;2022-09-28T01:07:39;15.40;99.90
26408;DHT22;14583;43.604;1.364;2022-09-28T01:10:06;15.30;99.90
26408;DHT22;14583;43.604;1.364;2022-09-28T01:12:32;15.40;99.90
26408;DHT22;14583;43.604;1.364;2022-09-28T01:14:59;15.40;99.90
26408;DHT22;14583;43.604;1.364;2022-09-28T01:17:35;15.30;99.90
26408;DHT22;14583;43.604;1.364;2022-09-28T01:25:44;15.40;99.90
26408;DHT22;14583;43.604;1.364;2022-09-28T01:28:17;15.40;99.90
26408;DHT22;14583;43.604;1.364;2022-09-28T01:30:55;15.40;99.90
26408;DHT22;14583;43.604;1.364;2022-09-28T01:33:25;15.40;99.90
26408;DHT22;14583;43.604;1.364;2022-09-28T01:35:58;15.40;99.90
26408;DHT22;14583;43.604;1.364;2022-09-28T01:38:36;15.40;99.90
26408;DHT22;14583;43.604;1.364;2022-09-28T01:41:03;15.40;99.90
26408;DHT22;14583;43.604;1.364;2022-09-28T01:43:32;15.50;99.90
26408;DHT22;14583;43.604;1.364;2022-09-28T01:46:06;15.40;99.90
26408;DHT22;14583;43.604;1.364;2022-09-28T01:48:45;15.40;99.90
26408;DHT22;14583;43.604;1.364;2022-09-28T01:51:26;15.40;99.90
26408;DHT22;14583;43.604;1.364;2022-09-28T01:53:58;15.40;99.90
26408;DHT22;14583;43.604;1.364;2022-09-28T01:56:44;15.40;99.90
26408;DHT22;14583;43.604;1.364;2022-09-28T01:59:19;15.40;99.90
26408;DHT22;14583;43.604;1.364;2022-09-28T02:02:11;15.30;99.90
26408;DHT22;14583;43.604;1.364;2022-09-28T02:04:47;15.30;99.90
26408;DHT22;14583;43.604;1.364;2022-09-28T02:07:26;15.30;99.90
26408;DHT22;14583;43.604;1.364;2022-09-28T02:09:57;15.30;99.90
26408;DHT22;14583;43.604;1.364;2022-09-28T02:12:31;15.30;99.90
26408;DHT22;14583;43.604;1.364;2022-09-28T02:15:05;15.30;99.90
26408;DHT22;14583;43.604;1.364;2022-09-28T02:17:35;15.40;99.90
26408;DHT22;14583;43.604;1.364;2022-09-28T02:20:01;15.40;99.90
26408;DHT22;14583;43.604;1.364;2022-09-28T02:22:32;15.40;99.90
26408;DHT22;14583;43.604;1.364;2022-09-28T02:25:49;15.50;99.90
26408;DHT22;14583;43.604;1.364;2022-09-28T02:27:59;15.50;99.90
26408;DHT22;14583;43.604;1.364;2022-09-28T02:30:25;15.50;99.90
26408;DHT22;14583;43.604;1.364;2022-09-28T02:32:54;15.60;99.90
26408;DHT22;14583;43.604;1.364;2022-09-28T02:35:21;15.50;99.90
26408;DHT22;14583;43.604;1.364;2022-09-28T02:37:48;15.50;99.90
26408;DHT22;14583;43.604;1.364;2022-09-28T02:40:16;15.50;99.90
26408;DHT22;14583;43.604;1.364;2022-09-28T02:42:52;15.50;99.90
26408;DHT22;14583;43.604;1.364;2022-09-28T02:50:56;15.50;99.90
26408;DHT22;14583;43.604;1.364;2022-09-28T02:57:17;15.50;99.90
26408;DHT22;14583;43.604;1.364;2022-09-28T03:07:31;15.50;99.90
26408;DHT22;14583;43.604;1.364;2022-09-28T03:12:43;15.40;99.90
26408;DHT22;14583;43.604;1.364;2022-09-28T03:15:30;15.40;99.90
26408;DHT22;14583;43.604;1.364;2022-09-28T03:17:57;15.40;99.90
26408;DHT22;14583;43.604;1.364;2022-09-28T03:20:23;15.40;99.90
26408;DHT22;14583;43.604;1.364;2022-09-28T03:22:49;15.40;99.90
26408;DHT22;14583;43.604;1.364;2022-09-28T03:25:14;15.50;99.90
26408;DHT22;14583;43.604;1.364;2022-09-28T03:27:40;15.50;99.90
26408;DHT22;14583;43.604;1.364;2022-09-28T03:30:07;15.50;99.90
26408;DHT22;14583;43.604;1.364;2022-09-28T03:32:33;15.50;99.90
26408;DHT22;14583;43.604;1.364;2022-09-28T03:34:59;15.60;99.90
26408;DHT22;14583;43.604;1.364;2022-09-28T03:37:28;15.70;99.90
26408;DHT22;14583;43.604;1.364;2022-09-28T03:39:54;15.60;99.90
26408;DHT22;14583;43.604;1.364;2022-09-28T03:42:19;15.60;99.90
26408;DHT22;14583;43.604;1.364;2022-09-28T03:44:45;15.60;99.90
26408;DHT22;14583;43.604;1.364;2022-09-28T03:47:11;15.60;99.90
26408;DHT22;14583;43.604;1.364;2022-09-28T03:49:36;15.60;99.90
26408;DHT22;14583;43.604;1.364;2022-09-28T03:52:03;15.70;99.90
26408;DHT22;14583;43.604;1.364;2022-09-28T03:54:28;15.70;99.90
26408;DHT22;14583;43.604;1.364;2022-09-28T03:56:54;15.60;99.90
26408;DHT22;14583;43.604;1.364;2022-09-28T03:59:20;15.60;99.90
26408;DHT22;14583;43.604;1.364;2022-09-28T04:01:48;15.60;99.90
26408;DHT22;14583;43.604;1.364;2022-09-28T04:04:14;15.70;99.90
26408;DHT22;14583;43.604;1.364;2022-09-28T04:06:39;15.70;99.90
26408;DHT22;14583;43.604;1.364;2022-09-28T04:09:05;15.70;99.90
26408;DHT22;14583;43.604;1.364;2022-09-28T04:11:31;15.70;99.90
26408;DHT22;14583;43.604;1.364;2022-09-28T04:13:57;15.70;99.90
26408;DHT22;14583;43.604;1.364;2022-09-28T04:16:22;15.70;99.90
26408;DHT22;14583;43.604;1.364;2022-09-28T04:18:48;15.70;99.90
26408;DHT22;14583;43.604;1.364;2022-09-28T04:21:16;15.80;99.90
26408;DHT22;14583;43.604;1.364;2022-09-28T04:23:42;15.80;99.90
26408;DHT22;14583;43.604;1.364;2022-09-28T04:26:29;15.90;99.90
26408;DHT22;14583;43.604;1.364;2022-09-28T04:28:54;15.80;99.90
26408;DHT22;14583;43.604;1.364;2022-09-28T04:31:50;15.90;99.90
26408;DHT22;14583;43.604;1.364;2022-09-28T04:34:19;15.90;99.90
26408;DHT22;14583;43.604;1.364;2022-09-28T04:36:46;15.90;99.90
26408;DHT22;14583;43.604;1.364;2022-09-28T04:39:14;15.90;99.90
26408;DHT22;14583;43.604;1.364;2022-09-28T04:41:41;15.90;99.90
26408;DHT22;14583;43.604;1.364;2022-09-28T04:44:07;15.90;99.90
26408;DHT22;14583;43.604;1.364;2022-09-28T04:46:33;15.90;99.90
26408;DHT22;14583;43.604;1.364;2022-09-28T04:48:59;15.80;99.90
26408;DHT22;14583;43.604;1.364;2022-09-28T04:51:24;15.80;99.90
26408;DHT22;14583;43.604;1.364;2022-09-28T04:53:50;15.80;99.90
26408;DHT22;14583;43.604;1.364;2022-09-28T04:56:17;15.90;99.90
26408;DHT22;14583;43.604;1.364;2022-09-28T04:58:43;15.90;99.90
26408;DHT22;14583;43.604;1.364;2022-09-28T05:01:14;15.80;99.90
26408;DHT22;14583;43.604;1.364;2022-09-28T05:03:40;15.70;99.90
26408;DHT22;14583;43.604;1.364;2022-09-28T05:06:06;15.70;99.90
26408;DHT22;14583;43.604;1.364;2022-09-28T05:08:33;15.70;99.90
26408;DHT22;14583;43.604;1.364;2022-09-28T05:11:01;15.50;99.90
26408;DHT22;14583;43.604;1.364;2022-09-28T05:13:27;15.60;99.90
26408;DHT22;14583;43.604;1.364;2022-09-28T05:15:55;15.60;99.90
26408;DHT22;14583;43.604;1.364;2022-09-28T05:18:21;15.70;99.90
26408;DHT22;14583;43.604;1.364;2022-09-28T05:20:47;15.70;99.90
26408;DHT22;14583;43.604;1.364;2022-09-28T05:23:13;15.80;99.90
26408;DHT22;14583;43.604;1.364;2022-09-28T05:25:40;15.70;99.90
26408;DHT22;14583;43.604;1.364;2022-09-28T05:28:06;15.80;99.90
26408;DHT22;14583;43.604;1.364;2022-09-28T05:30:33;15.80;99.90
26408;DHT22;14583;43.604;1.364;2022-09-28T05:32:58;15.80;99.90
26408;DHT22;14583;43.604;1.364;2022-09-28T05:35:24;15.90;99.90
26408;DHT22;14583;43.604;1.364;2022-09-28T05:37:50;15.90;99.90
26408;DHT22;14583;43.604;1.364;2022-09-28T05:40:16;15.90;99.90
26408;DHT22;14583;43.604;1.364;2022-09-28T05:42:42;15.90;99.90
26408;DHT22;14583;43.604;1.364;2022-09-28T05:45:08;15.90;99.90
26408;DHT22;14583;43.604;1.364;2022-09-28T05:47:42;15.80;99.90
26408;DHT22;14583;43.604;1.364;2022-09-28T05:50:09;15.70;99.90
26408;DHT22;14583;43.604;1.364;2022-09-28T05:52:37;15.70;99.90
26408;DHT22;14583;43.604;1.364;2022-09-28T05:55:06;15.70;99.90
26408;DHT22;14583;43.604;1.364;2022-09-28T05:57:32;15.70;99.90
26408;DHT22;14583;43.604;1.364;2022-09-28T05:59:58;15.70;99.90
26408;DHT22;14583;43.604;1.364;2022-09-28T06:02:23;15.70;99.90
26408;DHT22;14583;43.604;1.364;2022-09-28T06:04:49;15.70;99.90
26408;DHT22;14583;43.604;1.364;2022-09-28T06:07:16;15.70;99.90
26408;DHT22;14583;43.604;1.364;2022-09-28T06:09:42;15.70;99.90
26408;DHT22;14583;43.604;1.364;2022-09-28T06:12:08;15.80;99.90
26408;DHT22;14583;43.604;1.364;2022-09-28T06:14:34;15.80;99.90
26408;DHT22;14583;43.604;1.364;2022-09-28T06:16:59;15.90;99.90
26408;DHT22;14583;43.604;1.364;2022-09-28T06:19:25;15.90;99.90
26408;DHT22;14583;43.604;1.364;2022-09-28T06:21:51;16.00;99.90
26408;DHT22;14583;43.604;1.364;2022-09-28T06:24:17;16.00;99.90
26408;DHT22;14583;43.604;1.364;2022-09-28T06:26:42;16.10;99.90
26408;DHT22;14583;43.604;1.364;2022-09-28T06:29:08;16.10;99.90
26408;DHT22;14583;43.604;1.364;2022-09-28T06:31:34;16.10;99.90
26408;DHT22;14583;43.604;1.364;2022-09-28T06:33:59;16.20;99.90
26408;DHT22;14583;43.604;1.364;2022-09-28T06:36:28;16.20;99.90
26408;DHT22;14583;43.604;1.364;2022-09-28T06:38:55;16.20;99.90
26408;DHT22;14583;43.604;1.364;2022-09-28T06:41:21;16.20;99.90
26408;DHT22;14583;43.604;1.364;2022-09-28T06:43:47;16.20;99.90
26408;DHT22;14583;43.604;1.364;2022-09-28T06:46:13;16.20;99.90
26408;DHT22;14583;43.604;1.364;2022-09-28T06:48:38;16.20;99.90
26408;DHT22;14583;43.604;1.364;2022-09-28T06:51:04;16.20;99.90
26408;DHT22;14583;43.604;1.364;2022-09-28T06:53:31;16.30;99.90
26408;DHT22;14583;43.604;1.364;2022-09-28T06:55:57;16.20;99.90
26408;DHT22;14583;43.604;1.364;2022-09-28T06:58:23;16.30;99.90
26408;DHT22;14583;43.604;1.364;2022-09-28T07:00:50;16.30;99.90
26408;DHT22;14583;43.604;1.364;2022-09-28T07:03:20;16.30;99.90
26408;DHT22;14583;43.604;1.364;2022-09-28T07:05:48;16.30;99.90
26408;DHT22;14583;43.604;1.364;2022-09-28T07:08:15;16.30;99.90
26408;DHT22;14583;43.604;1.364;2022-09-28T07:10:46;16.40;99.90
26408;DHT22;14583;43.604;1.364;2022-09-28T07:13:14;16.30;99.90
26408;DHT22;14583;43.604;1.364;2022-09-28T07:15:40;16.40;99.90
26408;DHT22;14583;43.604;1.364;2022-09-28T07:18:07;16.40;99.90
26408;DHT22;14583;43.604;1.364;2022-09-28T07:20:34;16.40;99.90
26408;DHT22;14583;43.604;1.364;2022-09-28T07:23:02;16.40;99.90
26408;DHT22;14583;43.604;1.364;2022-09-28T07:25:28;16.40;99.90
26408;DHT22;14583;43.604;1.364;2022-09-28T07:28:03;16.40;99.90
26408;DHT22;14583;43.604;1.364;2022-09-28T07:30:33;16.50;99.90
26408;DHT22;14583;43.604;1.364;2022-09-28T07:33:00;16.60;99.90
26408;DHT22;14583;43.604;1.364;2022-09-28T07:35:26;16.60;99.90
26408;DHT22;14583;43.604;1.364;2022-09-28T07:38:02;16.70;99.90
26408;DHT22;14583;43.604;1.364;2022-09-28T07:40:29;16.60;99.90
26408;DHT22;14583;43.604;1.364;2022-09-28T07:43:13;16.60;99.90
26408;DHT22;14583;43.604;1.364;2022-09-28T07:45:42;16.60;99.90
26408;DHT22;14583;43.604;1.364;2022-09-28T07:48:08;16.80;99.90
26408;DHT22;14583;43.604;1.364;2022-09-28T07:50:34;16.90;99.90
26408;DHT22;14583;43.604;1.364;2022-09-28T07:52:59;16.90;99.90
26408;DHT22;14583;43.604;1.364;2022-09-28T07:55:25;17.00;99.90
26408;DHT22;14583;43.604;1.364;2022-09-28T07:57:57;16.90;99.90
26408;DHT22;14583;43.604;1.364;2022-09-28T08:00:27;17.00;99.90
26408;DHT22;14583;43.604;1.364;2022-09-28T08:02:54;17.00;99.90
26408;DHT22;14583;43.604;1.364;2022-09-28T08:05:19;17.10;99.90
26408;DHT22;14583;43.604;1.364;2022-09-28T08:07:45;17.10;99.90
26408;DHT22;14583;43.604;1.364;2022-09-28T08:10:11;17.10;99.90
26408;DHT22;14583;43.604;1.364;2022-09-28T08:12:36;17.30;99.90
26408;DHT22;14583;43.604;1.364;2022-09-28T08:15:06;17.30;99.90
26408;DHT22;14583;43.604;1.364;2022-09-28T08:17:35;17.40;99.90
26408;DHT22;14583;43.604;1.364;2022-09-28T08:20:01;17.40;99.90
26408;DHT22;14583;43.604;1.364;2022-09-28T08:22:45;17.40;99.90
26408;DHT22;14583;43.604;1.364;2022-09-28T08:25:10;17.40;99.90
26408;DHT22;14583;43.604;1.364;2022-09-28T08:27:36;17.40;99.90
26408;DHT22;14583;43.604;1.364;2022-09-28T08:30:02;17.30;99.90
26408;DHT22;14583;43.604;1.364;2022-09-28T08:32:27;17.40;99.90
26408;DHT22;14583;43.604;1.364;2022-09-28T08:34:54;17.40;99.90
26408;DHT22;14583;43.604;1.364;2022-09-28T08:37:20;17.50;99.90
26408;DHT22;14583;43.604;1.364;2022-09-28T08:39:46;17.60;99.90
26408;DHT22;14583;43.604;1.364;2022-09-28T08:42:33;17.70;99.90
26408;DHT22;14583;43.604;1.364;2022-09-28T08:45:12;17.70;99.90
26408;DHT22;14583;43.604;1.364;2022-09-28T08:50:32;17.80;99.90
26408;DHT22;14583;43.604;1.364;2022-09-28T08:53:04;17.90;99.90
26408;DHT22;14583;43.604;1.364;2022-09-28T08:55:38;17.80;99.90
26408;DHT22;14583;43.604;1.364;2022-09-28T09:00:44;17.70;99.90
26408;DHT22;14583;43.604;1.364;2022-09-28T09:03:13;17.80;99.90
26408;DHT22;14583;43.604;1.364;2022-09-28T09:06:04;17.80;99.90
26408;DHT22;14583;43.604;1.364;2022-09-28T09:08:49;17.90;99.90
26408;DHT22;14583;43.604;1.364;2022-09-28T09:14:13;17.80;99.90
26408;DHT22;14583;43.604;1.364;2022-09-28T09:22:07;17.70;99.90
26408;DHT22;14583;43.604;1.364;2022-09-28T09:30:23;17.80;99.90
26408;DHT22;14583;43.604;1.364;2022-09-28T09:39:38;18.10;99.90
26408;DHT22;14583;43.604;1.364;2022-09-28T09:47:38;18.20;99.90
26408;DHT22;14583;43.604;1.364;2022-09-28T09:50:23;18.30;99.90
26408;DHT22;14583;43.604;1.364;2022-09-28T09:55:46;18.40;99.90
26408;DHT22;14583;43.604;1.364;2022-09-28T09:58:17;18.40;99.90
26408;DHT22;14583;43.604;1.364;2022-09-28T10:00:48;18.30;99.90
26408;DHT22;14583;43.604;1.364;2022-09-28T10:03:27;18.30;99.90
26408;DHT22;14583;43.604;1.364;2022-09-28T10:06:07;18.30;99.90
26408;DHT22;14583;43.604;1.364;2022-09-28T10:08:48;18.20;99.90
26408;DHT22;14583;43.604;1.364;2022-09-28T10:13:45;18.30;99.90
26408;DHT22;14583;43.604;1.364;2022-09-28T10:16:13;18.30;99.90
26408;DHT22;14583;43.604;1.364;2022-09-28T10:18:39;18.10;99.90
26408;DHT22;14583;43.604;1.364;2022-09-28T10:21:05;17.90;99.90
26408;DHT22;14583;43.604;1.364;2022-09-28T10:23:33;17.90;99.90
26408;DHT22;14583;43.604;1.364;2022-09-28T10:26:08;17.90;99.90
26408;DHT22;14583;43.604;1.364;2022-09-28T10:28:58;17.90;99.90
26408;DHT22;14583;43.604;1.364;2022-09-28T10:34:07;17.90;99.90
26408;DHT22;14583;43.604;1.364;2022-09-28T10:39:51;17.90;99.90
26408;DHT22;14583;43.604;1.364;2022-09-28T10:42:29;17.80;99.90
26408;DHT22;14583;43.604;1.364;2022-09-28T10:45:02;17.60;99.90
26408;DHT22;14583;43.604;1.364;2022-09-28T10:47:29;17.50;99.90
26408;DHT22;14583;43.604;1.364;2022-09-28T10:49:57;17.50;99.90
26408;DHT22;14583;43.604;1.364;2022-09-28T10:52:37;17.60;99.90
26408;DHT22;14583;43.604;1.364;2022-09-28T10:55:26;17.60;99.90
26408;DHT22;14583;43.604;1.364;2022-09-28T10:57:51;17.70;99.90
26408;DHT22;14583;43.604;1.364;2022-09-28T11:02:55;17.40;99.90
26408;DHT22;14583;43.604;1.364;2022-09-28T11:05:24;17.30;99.90
26408;DHT22;14583;43.604;1.364;2022-09-28T11:07:54;17.10;99.90
26408;DHT22;14583;43.604;1.364;2022-09-28T11:10:29;17.10;99.90
26408;DHT22;14583;43.604;1.364;2022-09-28T11:12:55;17.30;99.90
26408;DHT22;14583;43.604;1.364;2022-09-28T11:15:31;17.40;99.90
26408;DHT22;14583;43.604;1.364;2022-09-28T11:18:27;17.40;99.90
26408;DHT22;14583;43.604;1.364;2022-09-28T11:21:11;17.50;99.90
26408;DHT22;14583;43.604;1.364;2022-09-28T11:23:38;17.70;99.90
26408;DHT22;14583;43.604;1.364;2022-09-28T11:26:06;17.90;99.90
26408;DHT22;14583;43.604;1.364;2022-09-28T11:28:35;18.00;99.90
26408;DHT22;14583;43.604;1.364;2022-09-28T11:31:02;18.00;99.90
26408;DHT22;14583;43.604;1.364;2022-09-28T11:39:02;18.00;99.90
26408;DHT22;14583;43.604;1.364;2022-09-28T11:44:37;18.00;99.90
26408;DHT22;14583;43.604;1.364;2022-09-28T11:47:30;18.00;99.90
26408;DHT22;14583;43.604;1.364;2022-09-28T11:52:40;18.10;99.90
26408;DHT22;14583;43.604;1.364;2022-09-28T12:01:39;17.90;99.90
26408;DHT22;14583;43.604;1.364;2022-09-28T12:03:45;17.90;99.90
26408;DHT22;14583;43.604;1.364;2022-09-28T12:06:16;17.90;99.90
26408;DHT22;14583;43.604;1.364;2022-09-28T12:08:50;18.00;99.90
26408;DHT22;14583;43.604;1.364;2022-09-28T12:11:26;17.90;99.90
26408;DHT22;14583;43.604;1.364;2022-09-28T12:13:58;17.90;99.90
26408;DHT22;14583;43.604;1.364;2022-09-28T12:16:43;17.90;99.90
26408;DHT22;14583;43.604;1.364;2022-09-28T12:22:15;17.80;99.90
26408;DHT22;14583;43.604;1.364;2022-09-28T12:24:45;17.80;99.90
26408;DHT22;14583;43.604;1.364;2022-09-28T12:32:49;17.70;99.90
26408;DHT22;14583;43.604;1.364;2022-09-28T12:40:50;17.90;99.90
26408;DHT22;14583;43.604;1.364;2022-09-28T12:43:36;18.00;99.90
26408;DHT22;14583;43.604;1.364;2022-09-28T12:51:50;18.10;99.90
26408;DHT22;14583;43.604;1.364;2022-09-28T12:54:43;17.90;99.90
26408;DHT22;14583;43.604;1.364;2022-09-28T12:57:31;17.70;99.90
26408;DHT22;14583;43.604;1.364;2022-09-28T13:00:21;17.80;99.90
26408;DHT22;14583;43.604;1.364;2022-09-28T13:02:57;17.90;99.90
26408;DHT22;14583;43.604;1.364;2022-09-28T13:05:38;18.00;99.90
26408;DHT22;14583;43.604;1.364;2022-09-28T13:22:39;18.60;99.90
26408;DHT22;14583;43.604;1.364;2022-09-28T13:25:17;18.40;99.90
26408;DHT22;14583;43.604;1.364;2022-09-28T13:27:58;18.30;99.90
26408;DHT22;14583;43.604;1.364;2022-09-28T13:30:25;18.30;99.90
26408;DHT22;14583;43.604;1.364;2022-09-28T13:32:57;18.40;99.90
26408;DHT22;14583;43.604;1.364;2022-09-28T13:35:24;18.40;99.90
26408;DHT22;14583;43.604;1.364;2022-09-28T13:49:14;18.60;99.90
26408;DHT22;14583;43.604;1.364;2022-09-28T13:54:22;18.70;99.90
26408;DHT22;14583;43.604;1.364;2022-09-28T13:57:16;18.80;99.90
26408;DHT22;14583;43.604;1.364;2022-09-28T14:02:58;18.70;99.90
26408;DHT22;14583;43.604;1.364;2022-09-28T14:05:33;18.60;99.90
26408;DHT22;14583;43.604;1.364;2022-09-28T14:16:36;18.40;99.90
26408;DHT22;14583;43.604;1.364;2022-09-28T14:19:11;18.20;99.90
26408;DHT22;14583;43.604;1.364;2022-09-28T14:21:58;18.00;99.90
26408;DHT22;14583;43.604;1.364;2022-09-28T14:27:58;18.50;99.90
26408;DHT22;14583;43.604;1.364;2022-09-28T14:33:23;19.10;99.90
26408;DHT22;14583;43.604;1.364;2022-09-28T14:38:55;20.00;99.90
26408;DHT22;14583;43.604;1.364;2022-09-28T14:41:36;20.10;99.90
26408;DHT22;14583;43.604;1.364;2022-09-28T14:44:06;19.40;99.90
26408;DHT22;14583;43.604;1.364;2022-09-28T14:46:35;19.30;99.90
26408;DHT22;14583;43.604;1.364;2022-09-28T14:52:00;18.70;99.90
26408;DHT22;14583;43.604;1.364;2022-09-28T14:54:36;18.50;99.90
26408;DHT22;14583;43.604;1.364;2022-09-28T14:59:39;17.80;99.90
26408;DHT22;14583;43.604;1.364;2022-09-28T15:04:51;18.00;99.90
26408;DHT22;14583;43.604;1.364;2022-09-28T15:07:26;18.60;99.90
26408;DHT22;14583;43.604;1.364;2022-09-28T15:09:57;18.50;99.90
26408;DHT22;14583;43.604;1.364;2022-09-28T15:12:29;18.20;99.90
26408;DHT22;14583;43.604;1.364;2022-09-28T15:15:04;18.00;99.90
26408;DHT22;14583;43.604;1.364;2022-09-28T15:17:34;17.90;99.90
26408;DHT22;14583;43.604;1.364;2022-09-28T15:22:29;17.80;99.90
26408;DHT22;14583;43.604;1.364;2022-09-28T15:24:55;17.70;99.90
26408;DHT22;14583;43.604;1.364;2022-09-28T15:27:21;17.80;99.90
26408;DHT22;14583;43.604;1.364;2022-09-28T15:30:27;17.70;99.90
26408;DHT22;14583;43.604;1.364;2022-09-28T15:32:54;17.60;99.90
26408;DHT22;14583;43.604;1.364;2022-09-28T15:35:40;17.50;99.90
26408;DHT22;14583;43.604;1.364;2022-09-28T15:38:13;17.50;99.90
26408;DHT22;14583;43.604;1.364;2022-09-28T15:40:41;17.50;99.90
26408;DHT22;14583;43.604;1.364;2022-09-28T15:43:29;17.50;99.90
26408;DHT22;14583;43.604;1.364;2022-09-28T15:46:11;17.60;99.90
26408;DHT22;14583;43.604;1.364;2022-09-28T15:48:51;17.50;99.90
26408;DHT22;14583;43.604;1.364;2022-09-28T15:51:18;17.30;99.90
26408;DHT22;14583;43.604;1.364;2022-09-28T15:56:26;17.20;99.90
26408;DHT22;14583;43.604;1.364;2022-09-28T15:59:17;17.20;99.90
26408;DHT22;14583;43.604;1.364;2022-09-28T16:01:46;17.10;99.90
26408;DHT22;14583;43.604;1.364;2022-09-28T16:04:35;17.00;99.90
26408;DHT22;14583;43.604;1.364;2022-09-28T16:10:43;16.80;99.90
26408;DHT22;14583;43.604;1.364;2022-09-28T16:12:46;16.80;99.90
26408;DHT22;14583;43.604;1.364;2022-09-28T16:15:28;16.90;99.90
26408;DHT22;14583;43.604;1.364;2022-09-28T16:17:57;16.90;99.90
26408;DHT22;14583;43.604;1.364;2022-09-28T16:20:34;16.80;99.90
26408;DHT22;14583;43.604;1.364;2022-09-28T16:26:00;16.90;99.90
26408;DHT22;14583;43.604;1.364;2022-09-28T16:36:11;17.10;99.90
26408;DHT22;14583;43.604;1.364;2022-09-28T16:38:37;17.10;99.90
26408;DHT22;14583;43.604;1.364;2022-09-28T16:41:04;17.70;99.90
26408;DHT22;14583;43.604;1.364;2022-09-28T16:43:32;17.60;99.90
26408;DHT22;14583;43.604;1.364;2022-09-28T16:46:14;17.90;99.90
26408;DHT22;14583;43.604;1.364;2022-09-28T16:48:46;18.10;99.90
26408;DHT22;14583;43.604;1.364;2022-09-28T16:51:16;18.10;99.90
26408;DHT22;14583;43.604;1.364;2022-09-28T16:53:43;17.90;99.90
26408;DHT22;14583;43.604;1.364;2022-09-28T16:56:27;17.60;99.90
26408;DHT22;14583;43.604;1.364;2022-09-28T16:58:54;17.60;99.90
26408;DHT22;14583;43.604;1.364;2022-09-28T17:01:21;17.60;99.90
26408;DHT22;14583;43.604;1.364;2022-09-28T17:03:47;17.50;99.90
26408;DHT22;14583;43.604;1.364;2022-09-28T17:06:18;17.30;99.90
26408;DHT22;14583;43.604;1.364;2022-09-28T17:08:44;17.20;99.90
26408;DHT22;14583;43.604;1.364;2022-09-28T17:11:18;17.00;99.90
26408;DHT22;14583;43.604;1.364;2022-09-28T17:13:45;17.00;99.90
26408;DHT22;14583;43.604;1.364;2022-09-28T17:16:17;17.00;99.90
26408;DHT22;14583;43.604;1.364;2022-09-28T17:18:44;17.00;99.90
26408;DHT22;14583;43.604;1.364;2022-09-28T17:21:15;17.10;99.90
26408;DHT22;14583;43.604;1.364;2022-09-28T17:23:42;17.00;99.90
26408;DHT22;14583;43.604;1.364;2022-09-28T17:26:33;16.90;99.90
26408;DHT22;14583;43.604;1.364;2022-09-28T17:29:00;16.90;99.90
26408;DHT22;14583;43.604;1.364;2022-09-28T17:31:27;16.90;99.90
26408;DHT22;14583;43.604;1.364;2022-09-28T17:33:54;16.90;99.90
26408;DHT22;14583;43.604;1.364;2022-09-28T17:36:20;16.70;99.90
26408;DHT22;14583;43.604;1.364;2022-09-28T17:38:47;16.70;99.90
26408;DHT22;14583;43.604;1.364;2022-09-28T17:41:18;16.70;99.90
26408;DHT22;14583;43.604;1.364;2022-09-28T17:43:43;16.60;99.90
26408;DHT22;14583;43.604;1.364;2022-09-28T17:46:26;16.60;99.90
26408;DHT22;14583;43.604;1.364;2022-09-28T17:48:52;16.70;99.90
26408;DHT22;14583;43.604;1.364;2022-09-28T17:51:18;16.70;99.90
26408;DHT22;14583;43.604;1.364;2022-09-28T17:53:44;16.80;99.90
26408;DHT22;14583;43.604;1.364;2022-09-28T17:56:09;16.80;99.90
26408;DHT22;14583;43.604;1.364;2022-09-28T17:58:36;16.80;99.90
26408;DHT22;14583;43.604;1.364;2022-09-28T18:01:03;16.70;99.90
26408;DHT22;14583;43.604;1.364;2022-09-28T18:03:28;16.70;99.90
26408;DHT22;14583;43.604;1.364;2022-09-28T18:06:09;16.70;99.90
26408;DHT22;14583;43.604;1.364;2022-09-28T18:08:37;16.60;99.90
26408;DHT22;14583;43.604;1.364;2022-09-28T18:11:03;16.60;99.90
26408;DHT22;14583;43.604;1.364;2022-09-28T18:13:29;16.50;99.90
26408;DHT22;14583;43.604;1.364;2022-09-28T18:15:55;16.50;99.90
26408;DHT22;14583;43.604;1.364;2022-09-28T18:18:24;16.40;99.90
26408;DHT22;14583;43.604;1.364;2022-09-28T18:20:51;16.40;99.90
26408;DHT22;14583;43.604;1.364;2022-09-28T18:23:17;16.50;99.90
26408;DHT22;14583;43.604;1.364;2022-09-28T18:25:44;16.40;99.90
26408;DHT22;14583;43.604;1.364;2022-09-28T18:28:11;16.30;99.90
26408;DHT22;14583;43.604;1.364;2022-09-28T18:30:41;16.30;99.90
26408;DHT22;14583;43.604;1.364;2022-09-28T18:33:08;16.20;99.90
26408;DHT22;14583;43.604;1.364;2022-09-28T18:35:34;16.30;99.90
26408;DHT22;14583;43.604;1.364;2022-09-28T18:38:01;16.30;99.90
26408;DHT22;14583;43.604;1.364;2022-09-28T18:40:27;16.30;99.90
26408;DHT22;14583;43.604;1.364;2022-09-28T18:42:53;16.40;99.90
26408;DHT22;14583;43.604;1.364;2022-09-28T18:45:18;16.40;99.90
26408;DHT22;14583;43.604;1.364;2022-09-28T18:47:44;16.30;99.90
26408;DHT22;14583;43.604;1.364;2022-09-28T18:50:11;16.40;99.90
26408;DHT22;14583;43.604;1.364;2022-09-28T18:52:38;16.40;99.90
26408;DHT22;14583;43.604;1.364;2022-09-28T18:55:05;16.30;99.90
26408;DHT22;14583;43.604;1.364;2022-09-28T18:57:32;16.20;99.90
26408;DHT22;14583;43.604;1.364;2022-09-28T18:59:59;16.30;99.90